Kitwanga, Canada
Current Conditions -  °F | °C
As of 1:00 PM on Friday 31 Oct 2014 (Local Time) from CYYD Reporting Station
Scattered Clouds Scattered Clouds  
Wind Chill:   Ceiling: Unl
Heat Index:   Visibility: 25mi
Dew Point:   Wind: 6mph
Humidity: 71%   Direction: 170°S
Pressure: 29.69"   Gusts: NA
Location:  55.1°N, 128.07°W
Report Text: CYYD 312000Z 17005KT 25SM FEW015 SCT065 SCT120 07/02 A2969 RMK SF1SC2AC1 SLP068
Loading
Personal Weather Stations






























Interactive Weather Map
Tropical Storm Tracking
New forecast layout! Learn more

10-Day Weather Forecast

Advertisements
Track Severe Weather on mobile